sensor_id;sensor_type;location;lat;lon;timestamp;temperature;humidity
14755;DHT22;7469;50.906;6.952;2022-12-16T00:01:56;-5.50;99.90
14755;DHT22;7469;50.906;6.952;2022-12-16T00:04:25;-5.50;99.90
14755;DHT22;7469;50.906;6.952;2022-12-16T00:06:53;-5.50;99.90
14755;DHT22;7469;50.906;6.952;2022-12-16T00:09:21;-5.50;99.90
14755;DHT22;7469;50.906;6.952;2022-12-16T00:11:49;-5.50;99.90
14755;DHT22;7469;50.906;6.952;2022-12-16T00:14:18;-5.50;99.90
14755;DHT22;7469;50.906;6.952;2022-12-16T00:16:47;-5.60;99.90
14755;DHT22;7469;50.906;6.952;2022-12-16T00:19:16;-5.60;99.90
14755;DHT22;7469;50.906;6.952;2022-12-16T00:21:44;-5.60;99.90
14755;DHT22;7469;50.906;6.952;2022-12-16T00:24:12;-5.60;99.90
14755;DHT22;7469;50.906;6.952;2022-12-16T00:26:39;-5.60;99.90
14755;DHT22;7469;50.906;6.952;2022-12-16T00:29:07;-5.60;99.90
14755;DHT22;7469;50.906;6.952;2022-12-16T00:31:38;-5.60;99.90
14755;DHT22;7469;50.906;6.952;2022-12-16T00:34:06;-5.60;99.90
14755;DHT22;7469;50.906;6.952;2022-12-16T00:36:34;-5.60;99.90
14755;DHT22;7469;50.906;6.952;2022-12-16T00:39:02;-5.60;99.90
14755;DHT22;7469;50.906;6.952;2022-12-16T00:41:30;-5.60;99.90
14755;DHT22;7469;50.906;6.952;2022-12-16T00:43:58;-5.70;99.90
14755;DHT22;7469;50.906;6.952;2022-12-16T00:46:26;-5.70;99.90
14755;DHT22;7469;50.906;6.952;2022-12-16T00:48:55;-5.70;99.90
14755;DHT22;7469;50.906;6.952;2022-12-16T00:51:23;-5.80;99.90
14755;DHT22;7469;50.906;6.952;2022-12-16T00:53:51;-5.80;99.90
14755;DHT22;7469;50.906;6.952;2022-12-16T00:56:19;-5.90;99.90
14755;DHT22;7469;50.906;6.952;2022-12-16T00:58:47;-5.90;99.90
14755;DHT22;7469;50.906;6.952;2022-12-16T01:01:16;-5.90;99.90
14755;DHT22;7469;50.906;6.952;2022-12-16T01:03:44;-5.90;99.90
14755;DHT22;7469;50.906;6.952;2022-12-16T01:06:15;-5.90;99.90
14755;DHT22;7469;50.906;6.952;2022-12-16T01:08:43;-6.00;99.90
14755;DHT22;7469;50.906;6.952;2022-12-16T01:11:15;-6.00;99.90
14755;DHT22;7469;50.906;6.952;2022-12-16T01:13:43;-6.00;99.90
14755;DHT22;7469;50.906;6.952;2022-12-16T01:16:11;-6.00;99.90
14755;DHT22;7469;50.906;6.952;2022-12-16T01:18:41;-6.00;99.90
14755;DHT22;7469;50.906;6.952;2022-12-16T01:21:11;-6.00;99.90
14755;DHT22;7469;50.906;6.952;2022-12-16T01:23:41;-6.00;99.90
14755;DHT22;7469;50.906;6.952;2022-12-16T01:26:14;-6.00;99.90
14755;DHT22;7469;50.906;6.952;2022-12-16T01:28:42;-6.00;99.90
14755;DHT22;7469;50.906;6.952;2022-12-16T01:31:10;-6.00;99.90
14755;DHT22;7469;50.906;6.952;2022-12-16T01:33:38;-6.10;99.90
14755;DHT22;7469;50.906;6.952;2022-12-16T01:36:07;-6.00;99.90
14755;DHT22;7469;50.906;6.952;2022-12-16T01:38:35;-6.00;99.90
14755;DHT22;7469;50.906;6.952;2022-12-16T01:41:05;-6.10;99.90
14755;DHT22;7469;50.906;6.952;2022-12-16T01:43:35;-6.10;99.90
14755;DHT22;7469;50.906;6.952;2022-12-16T01:46:07;-6.10;99.90
14755;DHT22;7469;50.906;6.952;2022-12-16T01:48:41;-6.20;99.90
14755;DHT22;7469;50.906;6.952;2022-12-16T01:51:15;-6.20;99.90
14755;DHT22;7469;50.906;6.952;2022-12-16T01:53:45;-6.20;99.90
14755;DHT22;7469;50.906;6.952;2022-12-16T01:56:36;-6.20;99.90
14755;DHT22;7469;50.906;6.952;2022-12-16T01:59:07;-6.20;99.90
14755;DHT22;7469;50.906;6.952;2022-12-16T02:01:35;-6.20;99.90
14755;DHT22;7469;50.906;6.952;2022-12-16T02:04:03;-6.20;99.90
14755;DHT22;7469;50.906;6.952;2022-12-16T02:06:32;-6.10;99.90
14755;DHT22;7469;50.906;6.952;2022-12-16T02:09:03;-6.10;99.90
14755;DHT22;7469;50.906;6.952;2022-12-16T02:11:53;-6.10;99.90
14755;DHT22;7469;50.906;6.952;2022-12-16T02:15:05;-6.10;99.90
14755;DHT22;7469;50.906;6.952;2022-12-16T02:17:42;-6.10;99.90
14755;DHT22;7469;50.906;6.952;2022-12-16T02:23:48;-6.00;99.90
14755;DHT22;7469;50.906;6.952;2022-12-16T02:26:42;-6.00;99.90
14755;DHT22;7469;50.906;6.952;2022-12-16T02:29:35;-6.10;99.90
14755;DHT22;7469;50.906;6.952;2022-12-16T02:32:13;-6.00;99.90
14755;DHT22;7469;50.906;6.952;2022-12-16T02:34:48;-6.00;99.90
14755;DHT22;7469;50.906;6.952;2022-12-16T02:37:31;-6.00;99.90
14755;DHT22;7469;50.906;6.952;2022-12-16T02:40:07;-6.00;99.90
14755;DHT22;7469;50.906;6.952;2022-12-16T02:42:42;-5.90;99.90
14755;DHT22;7469;50.906;6.952;2022-12-16T02:45:15;-5.90;99.90
14755;DHT22;7469;50.906;6.952;2022-12-16T02:48:03;-5.90;99.90
14755;DHT22;7469;50.906;6.952;2022-12-16T02:50:33;-5.90;99.90
14755;DHT22;7469;50.906;6.952;2022-12-16T02:53:03;-5.80;99.90
14755;DHT22;7469;50.906;6.952;2022-12-16T02:55:38;-5.80;99.90
14755;DHT22;7469;50.906;6.952;2022-12-16T02:58:14;-5.80;99.90
14755;DHT22;7469;50.906;6.952;2022-12-16T03:00:53;-5.80;99.90
14755;DHT22;7469;50.906;6.952;2022-12-16T03:03:44;-5.80;99.90
14755;DHT22;7469;50.906;6.952;2022-12-16T03:06:14;-5.80;99.90
14755;DHT22;7469;50.906;6.952;2022-12-16T03:08:49;-5.80;99.90
14755;DHT22;7469;50.906;6.952;2022-12-16T03:11:18;-5.90;99.90
14755;DHT22;7469;50.906;6.952;2022-12-16T03:13:49;-5.90;99.90
14755;DHT22;7469;50.906;6.952;2022-12-16T03:16:20;-5.90;99.90
14755;DHT22;7469;50.906;6.952;2022-12-16T03:18:54;-5.90;99.90
14755;DHT22;7469;50.906;6.952;2022-12-16T03:21:44;-5.80;99.90
14755;DHT22;7469;50.906;6.952;2022-12-16T03:24:13;-5.80;99.90
14755;DHT22;7469;50.906;6.952;2022-12-16T03:26:45;-5.80;99.90
14755;DHT22;7469;50.906;6.952;2022-12-16T03:29:20;-5.80;99.90
14755;DHT22;7469;50.906;6.952;2022-12-16T03:31:54;-5.80;99.90
14755;DHT22;7469;50.906;6.952;2022-12-16T03:34:32;-5.70;99.90
14755;DHT22;7469;50.906;6.952;2022-12-16T03:37:22;-5.70;99.90
14755;DHT22;7469;50.906;6.952;2022-12-16T03:39:55;-5.70;99.90
14755;DHT22;7469;50.906;6.952;2022-12-16T03:42:25;-5.70;99.90
14755;DHT22;7469;50.906;6.952;2022-12-16T03:44:53;-5.60;99.90
14755;DHT22;7469;50.906;6.952;2022-12-16T03:47:21;-5.60;99.90
14755;DHT22;7469;50.906;6.952;2022-12-16T03:49:53;-5.60;99.90
14755;DHT22;7469;50.906;6.952;2022-12-16T03:52:21;-5.60;99.90
14755;DHT22;7469;50.906;6.952;2022-12-16T03:55:07;-5.60;99.90
14755;DHT22;7469;50.906;6.952;2022-12-16T03:57:35;-5.60;99.90
14755;DHT22;7469;50.906;6.952;2022-12-16T04:00:04;-5.50;99.90
14755;DHT22;7469;50.906;6.952;2022-12-16T04:02:34;-5.60;99.90
14755;DHT22;7469;50.906;6.952;2022-12-16T04:05:04;-5.60;99.90
14755;DHT22;7469;50.906;6.952;2022-12-16T04:07:32;-5.50;99.90
14755;DHT22;7469;50.906;6.952;2022-12-16T04:10:17;-5.60;99.90
14755;DHT22;7469;50.906;6.952;2022-12-16T04:13:08;-5.60;99.90
14755;DHT22;7469;50.906;6.952;2022-12-16T04:15:54;-5.60;99.90
14755;DHT22;7469;50.906;6.952;2022-12-16T04:18:40;-5.60;99.90
14755;DHT22;7469;50.906;6.952;2022-12-16T04:21:27;-5.60;99.90
14755;DHT22;7469;50.906;6.952;2022-12-16T04:24:17;-5.60;99.90
14755;DHT22;7469;50.906;6.952;2022-12-16T04:27:03;-5.60;99.90
14755;DHT22;7469;50.906;6.952;2022-12-16T04:29:49;-5.70;99.90
14755;DHT22;7469;50.906;6.952;2022-12-16T04:32:31;-5.60;99.90
14755;DHT22;7469;50.906;6.952;2022-12-16T04:35:20;-5.60;99.90
14755;DHT22;7469;50.906;6.952;2022-12-16T04:38:06;-5.60;99.90
14755;DHT22;7469;50.906;6.952;2022-12-16T04:40:51;-5.70;99.90
14755;DHT22;7469;50.906;6.952;2022-12-16T04:43:54;-5.70;99.90
14755;DHT22;7469;50.906;6.952;2022-12-16T04:46:40;-5.70;99.90
14755;DHT22;7469;50.906;6.952;2022-12-16T04:49:25;-5.70;99.90
14755;DHT22;7469;50.906;6.952;2022-12-16T04:52:11;-5.70;99.90
14755;DHT22;7469;50.906;6.952;2022-12-16T04:54:58;-5.70;99.90
14755;DHT22;7469;50.906;6.952;2022-12-16T04:57:47;-5.70;99.90
14755;DHT22;7469;50.906;6.952;2022-12-16T05:00:50;-5.70;99.90
14755;DHT22;7469;50.906;6.952;2022-12-16T05:03:36;-5.70;99.90
14755;DHT22;7469;50.906;6.952;2022-12-16T05:06:21;-5.70;99.90
14755;DHT22;7469;50.906;6.952;2022-12-16T05:09:07;-5.70;99.90
14755;DHT22;7469;50.906;6.952;2022-12-16T05:11:54;-5.70;99.90
14755;DHT22;7469;50.906;6.952;2022-12-16T05:14:39;-5.70;99.90
14755;DHT22;7469;50.906;6.952;2022-12-16T05:17:25;-5.70;99.90
14755;DHT22;7469;50.906;6.952;2022-12-16T05:20:10;-5.70;99.90
14755;DHT22;7469;50.906;6.952;2022-12-16T05:23:07;-5.80;99.90
14755;DHT22;7469;50.906;6.952;2022-12-16T05:25:55;-5.80;99.90
14755;DHT22;7469;50.906;6.952;2022-12-16T05:28:42;-5.90;99.90
14755;DHT22;7469;50.906;6.952;2022-12-16T05:31:28;-5.90;99.90
14755;DHT22;7469;50.906;6.952;2022-12-16T05:34:31;-5.90;99.90
14755;DHT22;7469;50.906;6.952;2022-12-16T05:37:17;-6.00;99.90
14755;DHT22;7469;50.906;6.952;2022-12-16T05:40:03;-6.00;99.90
14755;DHT22;7469;50.906;6.952;2022-12-16T05:42:49;-6.00;99.90
14755;DHT22;7469;50.906;6.952;2022-12-16T05:45:43;-6.10;99.90
14755;DHT22;7469;50.906;6.952;2022-12-16T05:48:29;-6.10;99.90
14755;DHT22;7469;50.906;6.952;2022-12-16T05:51:15;-6.10;99.90
14755;DHT22;7469;50.906;6.952;2022-12-16T05:54:01;-6.20;99.90
14755;DHT22;7469;50.906;6.952;2022-12-16T05:56:47;-6.20;99.90
14755;DHT22;7469;50.906;6.952;2022-12-16T05:59:33;-6.20;99.90
14755;DHT22;7469;50.906;6.952;2022-12-16T06:02:20;-6.20;99.90
14755;DHT22;7469;50.906;6.952;2022-12-16T06:05:06;-6.30;99.90
14755;DHT22;7469;50.906;6.952;2022-12-16T06:07:52;-6.30;99.90
14755;DHT22;7469;50.906;6.952;2022-12-16T06:10:37;-6.30;99.90
14755;DHT22;7469;50.906;6.952;2022-12-16T06:13:23;-6.40;99.90
14755;DHT22;7469;50.906;6.952;2022-12-16T06:16:08;-6.40;99.90
14755;DHT22;7469;50.906;6.952;2022-12-16T06:18:55;-6.50;99.90
14755;DHT22;7469;50.906;6.952;2022-12-16T06:21:41;-6.50;99.90
14755;DHT22;7469;50.906;6.952;2022-12-16T06:24:26;-6.50;99.90
14755;DHT22;7469;50.906;6.952;2022-12-16T06:27:11;-6.50;99.90
14755;DHT22;7469;50.906;6.952;2022-12-16T06:29:57;-6.60;99.90
14755;DHT22;7469;50.906;6.952;2022-12-16T06:32:42;-6.60;99.90
14755;DHT22;7469;50.906;6.952;2022-12-16T06:35:29;-6.60;99.90
14755;DHT22;7469;50.906;6.952;2022-12-16T06:38:15;-6.60;99.90
14755;DHT22;7469;50.906;6.952;2022-12-16T06:41:00;-6.60;99.90
14755;DHT22;7469;50.906;6.952;2022-12-16T06:43:45;-6.60;99.90
14755;DHT22;7469;50.906;6.952;2022-12-16T06:46:31;-6.60;99.90
14755;DHT22;7469;50.906;6.952;2022-12-16T06:49:17;-6.60;99.90
14755;DHT22;7469;50.906;6.952;2022-12-16T06:52:03;-6.60;99.90
14755;DHT22;7469;50.906;6.952;2022-12-16T06:54:49;-6.60;99.90
14755;DHT22;7469;50.906;6.952;2022-12-16T06:57:34;-6.50;99.90
14755;DHT22;7469;50.906;6.952;2022-12-16T07:00:20;-6.50;99.90
14755;DHT22;7469;50.906;6.952;2022-12-16T07:03:06;-6.50;99.90
14755;DHT22;7469;50.906;6.952;2022-12-16T07:05:52;-6.50;99.90
14755;DHT22;7469;50.906;6.952;2022-12-16T07:08:38;-6.50;99.90
14755;DHT22;7469;50.906;6.952;2022-12-16T07:11:24;-6.40;99.90
14755;DHT22;7469;50.906;6.952;2022-12-16T07:14:09;-6.40;99.90
14755;DHT22;7469;50.906;6.952;2022-12-16T07:16:54;-6.40;99.90
14755;DHT22;7469;50.906;6.952;2022-12-16T07:19:43;-6.40;99.90
14755;DHT22;7469;50.906;6.952;2022-12-16T07:22:28;-6.40;99.90
14755;DHT22;7469;50.906;6.952;2022-12-16T07:25:28;-6.40;99.90
14755;DHT22;7469;50.906;6.952;2022-12-16T07:28:13;-6.40;99.90
14755;DHT22;7469;50.906;6.952;2022-12-16T07:31:10;-6.40;99.90
14755;DHT22;7469;50.906;6.952;2022-12-16T07:33:56;-6.30;99.90
14755;DHT22;7469;50.906;6.952;2022-12-16T07:36:41;-6.30;99.90
14755;DHT22;7469;50.906;6.952;2022-12-16T07:39:27;-6.40;99.90
14755;DHT22;7469;50.906;6.952;2022-12-16T07:42:21;-6.40;99.90
14755;DHT22;7469;50.906;6.952;2022-12-16T07:45:08;-6.30;99.90
14755;DHT22;7469;50.906;6.952;2022-12-16T07:47:54;-6.30;99.90
14755;DHT22;7469;50.906;6.952;2022-12-16T07:50:40;-6.30;99.90
14755;DHT22;7469;50.906;6.952;2022-12-16T07:53:26;-6.30;99.90
14755;DHT22;7469;50.906;6.952;2022-12-16T07:56:12;-6.40;99.90
14755;DHT22;7469;50.906;6.952;2022-12-16T07:58:58;-6.40;99.90
14755;DHT22;7469;50.906;6.952;2022-12-16T08:01:44;-6.30;99.90
14755;DHT22;7469;50.906;6.952;2022-12-16T08:04:29;-6.30;99.90
14755;DHT22;7469;50.906;6.952;2022-12-16T08:07:15;-6.30;99.90
14755;DHT22;7469;50.906;6.952;2022-12-16T08:10:00;-6.30;99.90
14755;DHT22;7469;50.906;6.952;2022-12-16T08:12:46;-6.30;99.90
14755;DHT22;7469;50.906;6.952;2022-12-16T08:15:33;-6.30;99.90
14755;DHT22;7469;50.906;6.952;2022-12-16T08:18:18;-6.30;99.90
14755;DHT22;7469;50.906;6.952;2022-12-16T08:21:04;-6.30;99.90
14755;DHT22;7469;50.906;6.952;2022-12-16T08:23:58;-6.30;99.90
14755;DHT22;7469;50.906;6.952;2022-12-16T08:26:43;-6.30;99.90
14755;DHT22;7469;50.906;6.952;2022-12-16T08:29:28;-6.40;99.90
14755;DHT22;7469;50.906;6.952;2022-12-16T08:32:15;-6.30;99.90
14755;DHT22;7469;50.906;6.952;2022-12-16T08:34:57;-6.20;99.90
14755;DHT22;7469;50.906;6.952;2022-12-16T08:37:45;-6.10;99.90
14755;DHT22;7469;50.906;6.952;2022-12-16T08:40:40;-5.90;99.90
14755;DHT22;7469;50.906;6.952;2022-12-16T08:43:25;-5.70;99.90
14755;DHT22;7469;50.906;6.952;2022-12-16T08:46:11;-5.30;99.90
14755;DHT22;7469;50.906;6.952;2022-12-16T08:48:58;-5.10;99.90
14755;DHT22;7469;50.906;6.952;2022-12-16T08:51:44;-4.80;99.90
14755;DHT22;7469;50.906;6.952;2022-12-16T08:54:29;-4.70;99.90
14755;DHT22;7469;50.906;6.952;2022-12-16T08:57:15;-4.40;99.90
14755;DHT22;7469;50.906;6.952;2022-12-16T09:00:02;-4.00;99.90
14755;DHT22;7469;50.906;6.952;2022-12-16T09:02:51;-3.60;99.90
14755;DHT22;7469;50.906;6.952;2022-12-16T09:05:38;-3.10;99.90
14755;DHT22;7469;50.906;6.952;2022-12-16T09:08:24;-2.70;99.90
14755;DHT22;7469;50.906;6.952;2022-12-16T09:11:09;-2.10;99.90
14755;DHT22;7469;50.906;6.952;2022-12-16T09:13:55;-1.60;99.90
14755;DHT22;7469;50.906;6.952;2022-12-16T09:16:41;-1.00;99.90
14755;DHT22;7469;50.906;6.952;2022-12-16T09:19:26;-0.40;99.90
14755;DHT22;7469;50.906;6.952;2022-12-16T09:22:13;0.00;99.90
14755;DHT22;7469;50.906;6.952;2022-12-16T09:24:58;0.20;99.90
14755;DHT22;7469;50.906;6.952;2022-12-16T09:27:44;0.30;99.90
14755;DHT22;7469;50.906;6.952;2022-12-16T09:30:32;0.60;99.90
14755;DHT22;7469;50.906;6.952;2022-12-16T09:33:18;0.70;99.90
14755;DHT22;7469;50.906;6.952;2022-12-16T09:36:03;0.90;99.90
14755;DHT22;7469;50.906;6.952;2022-12-16T09:38:50;1.00;99.90
14755;DHT22;7469;50.906;6.952;2022-12-16T09:41:41;1.10;99.90
14755;DHT22;7469;50.906;6.952;2022-12-16T09:44:38;1.10;99.90
14755;DHT22;7469;50.906;6.952;2022-12-16T09:47:33;1.20;99.90
14755;DHT22;7469;50.906;6.952;2022-12-16T09:50:29;1.30;99.90
14755;DHT22;7469;50.906;6.952;2022-12-16T09:53:19;1.70;99.90
14755;DHT22;7469;50.906;6.952;2022-12-16T09:56:15;2.00;99.90
14755;DHT22;7469;50.906;6.952;2022-12-16T09:59:06;2.30;99.90
14755;DHT22;7469;50.906;6.952;2022-12-16T10:01:55;2.30;99.90
14755;DHT22;7469;50.906;6.952;2022-12-16T10:04:42;2.40;99.90
14755;DHT22;7469;50.906;6.952;2022-12-16T10:07:30;2.70;99.90
14755;DHT22;7469;50.906;6.952;2022-12-16T10:10:27;2.70;99.90
14755;DHT22;7469;50.906;6.952;2022-12-16T10:13:21;2.50;99.90
14755;DHT22;7469;50.906;6.952;2022-12-16T10:16:13;2.20;99.90
14755;DHT22;7469;50.906;6.952;2022-12-16T10:19:09;1.90;99.90
14755;DHT22;7469;50.906;6.952;2022-12-16T10:22:08;1.70;99.90
14755;DHT22;7469;50.906;6.952;2022-12-16T10:25:00;1.70;99.90
14755;DHT22;7469;50.906;6.952;2022-12-16T10:27:56;2.00;99.90
14755;DHT22;7469;50.906;6.952;2022-12-16T10:30:46;2.30;99.90
14755;DHT22;7469;50.906;6.952;2022-12-16T10:33:31;2.80;99.90
14755;DHT22;7469;50.906;6.952;2022-12-16T10:36:20;3.40;99.90
14755;DHT22;7469;50.906;6.952;2022-12-16T10:39:23;4.10;99.90
14755;DHT22;7469;50.906;6.952;2022-12-16T10:42:19;4.80;99.90
14755;DHT22;7469;50.906;6.952;2022-12-16T10:45:15;5.20;99.90
14755;DHT22;7469;50.906;6.952;2022-12-16T10:48:03;5.50;99.90
14755;DHT22;7469;50.906;6.952;2022-12-16T10:50:48;5.70;99.90
14755;DHT22;7469;50.906;6.952;2022-12-16T10:53:34;5.90;99.90
14755;DHT22;7469;50.906;6.952;2022-12-16T10:56:48;6.20;99.90
14755;DHT22;7469;50.906;6.952;2022-12-16T10:59:35;6.60;99.90
14755;DHT22;7469;50.906;6.952;2022-12-16T11:02:24;6.90;99.90
14755;DHT22;7469;50.906;6.952;2022-12-16T11:05:39;7.30;99.90
14755;DHT22;7469;50.906;6.952;2022-12-16T11:08:27;7.70;99.90
14755;DHT22;7469;50.906;6.952;2022-12-16T11:11:19;8.10;99.90
14755;DHT22;7469;50.906;6.952;2022-12-16T11:14:18;8.30;99.90
14755;DHT22;7469;50.906;6.952;2022-12-16T11:17:17;8.40;99.90
14755;DHT22;7469;50.906;6.952;2022-12-16T11:20:11;8.50;99.90
14755;DHT22;7469;50.906;6.952;2022-12-16T11:23:24;8.60;99.90
14755;DHT22;7469;50.906;6.952;2022-12-16T11:26:24;8.70;99.90
14755;DHT22;7469;50.906;6.952;2022-12-16T11:29:12;8.80;99.90
14755;DHT22;7469;50.906;6.952;2022-12-16T11:32:02;9.00;99.60
14755;DHT22;7469;50.906;6.952;2022-12-16T11:34:54;9.20;99.10
14755;DHT22;7469;50.906;6.952;2022-12-16T11:37:41;9.50;98.60
14755;DHT22;7469;50.906;6.952;2022-12-16T11:40:29;9.70;97.70
14755;DHT22;7469;50.906;6.952;2022-12-16T11:43:17;9.70;97.00
14755;DHT22;7469;50.906;6.952;2022-12-16T11:46:07;9.70;96.30
14755;DHT22;7469;50.906;6.952;2022-12-16T11:48:57;9.50;96.00
14755;DHT22;7469;50.906;6.952;2022-12-16T11:51:54;9.30;96.00
14755;DHT22;7469;50.906;6.952;2022-12-16T11:55:11;9.20;96.00
14755;DHT22;7469;50.906;6.952;2022-12-16T11:58:25;8.90;95.70
14755;DHT22;7469;50.906;6.952;2022-12-16T12:01:18;8.30;95.90
14755;DHT22;7469;50.906;6.952;2022-12-16T12:04:12;7.80;96.50
14755;DHT22;7469;50.906;6.952;2022-12-16T12:07:24;7.20;97.20
14755;DHT22;7469;50.906;6.952;2022-12-16T12:13:48;6.30;98.90
14755;DHT22;7469;50.906;6.952;2022-12-16T12:16:44;5.60;99.80
14755;DHT22;7469;50.906;6.952;2022-12-16T12:19:40;5.10;99.90
14755;DHT22;7469;50.906;6.952;2022-12-16T12:22:33;4.70;99.90
14755;DHT22;7469;50.906;6.952;2022-12-16T12:25:24;4.20;99.90
14755;DHT22;7469;50.906;6.952;2022-12-16T12:28:20;3.80;99.90
14755;DHT22;7469;50.906;6.952;2022-12-16T12:31:17;3.50;99.90
14755;DHT22;7469;50.906;6.952;2022-12-16T12:34:10;3.10;99.90
14755;DHT22;7469;50.906;6.952;2022-12-16T12:37:03;2.80;99.90
14755;DHT22;7469;50.906;6.952;2022-12-16T12:39:57;2.50;99.90
14755;DHT22;7469;50.906;6.952;2022-12-16T12:42:49;2.40;99.90
14755;DHT22;7469;50.906;6.952;2022-12-16T12:45:46;2.20;99.90
14755;DHT22;7469;50.906;6.952;2022-12-16T12:48:39;2.10;99.90
14755;DHT22;7469;50.906;6.952;2022-12-16T12:51:30;1.90;99.90
14755;DHT22;7469;50.906;6.952;2022-12-16T12:54:24;1.80;99.90
14755;DHT22;7469;50.906;6.952;2022-12-16T12:57:17;1.80;99.90
14755;DHT22;7469;50.906;6.952;2022-12-16T13:00:05;1.70;99.90
14755;DHT22;7469;50.906;6.952;2022-12-16T13:03:01;1.70;99.90
14755;DHT22;7469;50.906;6.952;2022-12-16T13:05:51;1.60;99.90
14755;DHT22;7469;50.906;6.952;2022-12-16T13:08:44;1.50;99.90
14755;DHT22;7469;50.906;6.952;2022-12-16T13:11:30;1.40;99.90
14755;DHT22;7469;50.906;6.952;2022-12-16T13:14:52;1.40;99.90
14755;DHT22;7469;50.906;6.952;2022-12-16T13:18:17;1.30;99.90
14755;DHT22;7469;50.906;6.952;2022-12-16T13:21:43;1.30;99.90
14755;DHT22;7469;50.906;6.952;2022-12-16T13:24:36;1.30;99.90
14755;DHT22;7469;50.906;6.952;2022-12-16T13:27:23;1.20;99.90
14755;DHT22;7469;50.906;6.952;2022-12-16T13:30:23;1.10;99.90
14755;DHT22;7469;50.906;6.952;2022-12-16T13:33:26;1.00;99.90
14755;DHT22;7469;50.906;6.952;2022-12-16T13:36:16;0.80;99.90
14755;DHT22;7469;50.906;6.952;2022-12-16T13:39:19;0.70;99.90
14755;DHT22;7469;50.906;6.952;2022-12-16T13:42:33;0.50;99.90
14755;DHT22;7469;50.906;6.952;2022-12-16T13:45:31;0.30;99.90
14755;DHT22;7469;50.906;6.952;2022-12-16T13:48:29;0.20;99.90
14755;DHT22;7469;50.906;6.952;2022-12-16T13:55:11;-0.10;99.90
14755;DHT22;7469;50.906;6.952;2022-12-16T13:58:02;-0.10;99.90
14755;DHT22;7469;50.906;6.952;2022-12-16T14:00:56;-0.20;99.90
14755;DHT22;7469;50.906;6.952;2022-12-16T14:03:47;-0.30;99.90
14755;DHT22;7469;50.906;6.952;2022-12-16T14:06:35;-0.30;99.90
14755;DHT22;7469;50.906;6.952;2022-12-16T14:09:31;-0.40;99.90
14755;DHT22;7469;50.906;6.952;2022-12-16T14:12:41;-0.40;99.90
14755;DHT22;7469;50.906;6.952;2022-12-16T14:15:31;-0.50;99.90
14755;DHT22;7469;50.906;6.952;2022-12-16T14:18:26;-0.50;99.90
14755;DHT22;7469;50.906;6.952;2022-12-16T14:21:18;-0.60;99.90
14755;DHT22;7469;50.906;6.952;2022-12-16T14:24:09;-0.60;99.90
14755;DHT22;7469;50.906;6.952;2022-12-16T14:26:57;-0.60;99.90
14755;DHT22;7469;50.906;6.952;2022-12-16T14:29:50;-0.60;99.90
14755;DHT22;7469;50.906;6.952;2022-12-16T14:32:35;-0.60;99.90
14755;DHT22;7469;50.906;6.952;2022-12-16T14:35:23;-0.70;99.90
14755;DHT22;7469;50.906;6.952;2022-12-16T14:38:21;-0.70;99.90
14755;DHT22;7469;50.906;6.952;2022-12-16T14:41:10;-0.70;99.90
14755;DHT22;7469;50.906;6.952;2022-12-16T14:43:56;-0.70;99.90
14755;DHT22;7469;50.906;6.952;2022-12-16T14:46:48;-0.70;99.90
14755;DHT22;7469;50.906;6.952;2022-12-16T14:49:34;-0.70;99.90
14755;DHT22;7469;50.906;6.952;2022-12-16T14:52:21;-0.70;99.90
14755;DHT22;7469;50.906;6.952;2022-12-16T14:55:13;-0.70;99.90
14755;DHT22;7469;50.906;6.952;2022-12-16T14:58:04;-0.80;99.90
14755;DHT22;7469;50.906;6.952;2022-12-16T15:00:51;-0.80;99.90
14755;DHT22;7469;50.906;6.952;2022-12-16T15:03:44;-0.80;99.90
14755;DHT22;7469;50.906;6.952;2022-12-16T15:06:33;-0.80;99.90
14755;DHT22;7469;50.906;6.952;2022-12-16T15:09:26;-0.80;99.90
14755;DHT22;7469;50.906;6.952;2022-12-16T15:12:14;-0.80;99.90
14755;DHT22;7469;50.906;6.952;2022-12-16T15:15:03;-0.80;99.90
14755;DHT22;7469;50.906;6.952;2022-12-16T15:17:51;-0.80;99.90
14755;DHT22;7469;50.906;6.952;2022-12-16T15:20:43;-0.80;99.90
14755;DHT22;7469;50.906;6.952;2022-12-16T15:23:33;-0.80;99.90
14755;DHT22;7469;50.906;6.952;2022-12-16T15:26:33;-0.80;99.90
14755;DHT22;7469;50.906;6.952;2022-12-16T15:29:32;-0.80;99.90
14755;DHT22;7469;50.906;6.952;2022-12-16T15:32:29;-0.90;99.90
14755;DHT22;7469;50.906;6.952;2022-12-16T15:35:29;-0.90;99.90
14755;DHT22;7469;50.906;6.952;2022-12-16T15:38:25;-0.90;99.90
14755;DHT22;7469;50.906;6.952;2022-12-16T15:41:20;-0.90;99.90
14755;DHT22;7469;50.906;6.952;2022-12-16T15:44:13;-0.90;99.90
14755;DHT22;7469;50.906;6.952;2022-12-16T15:46:59;-0.90;99.90
14755;DHT22;7469;50.906;6.952;2022-12-16T15:49:46;-0.90;99.90
14755;DHT22;7469;50.906;6.952;2022-12-16T15:52:35;-0.90;99.90
14755;DHT22;7469;50.906;6.952;2022-12-16T15:55:27;-0.90;99.90
14755;DHT22;7469;50.906;6.952;2022-12-16T15:58:18;-0.90;99.90
14755;DHT22;7469;50.906;6.952;2022-12-16T16:01:00;-0.90;99.90
14755;DHT22;7469;50.906;6.952;2022-12-16T16:03:50;-0.90;99.90
14755;DHT22;7469;50.906;6.952;2022-12-16T16:06:36;-0.90;99.90
14755;DHT22;7469;50.906;6.952;2022-12-16T16:09:23;-0.90;99.90
14755;DHT22;7469;50.906;6.952;2022-12-16T16:12:12;-0.90;99.90
14755;DHT22;7469;50.906;6.952;2022-12-16T16:14:58;-0.90;99.90
14755;DHT22;7469;50.906;6.952;2022-12-16T16:17:43;-0.90;99.90
14755;DHT22;7469;50.906;6.952;2022-12-16T16:20:30;-0.90;99.90
14755;DHT22;7469;50.906;6.952;2022-12-16T16:23:15;-0.90;99.90
14755;DHT22;7469;50.906;6.952;2022-12-16T16:26:02;-0.90;99.90
14755;DHT22;7469;50.906;6.952;2022-12-16T16:28:48;-0.90;99.90
14755;DHT22;7469;50.906;6.952;2022-12-16T16:31:34;-0.90;99.90
14755;DHT22;7469;50.906;6.952;2022-12-16T16:34:22;-0.90;99.90
14755;DHT22;7469;50.906;6.952;2022-12-16T16:37:12;-1.00;99.90
14755;DHT22;7469;50.906;6.952;2022-12-16T16:39:59;-0.90;99.90
14755;DHT22;7469;50.906;6.952;2022-12-16T16:42:45;-1.00;99.90
14755;DHT22;7469;50.906;6.952;2022-12-16T16:45:31;-1.00;99.90
14755;DHT22;7469;50.906;6.952;2022-12-16T16:48:17;-0.90;99.90
14755;DHT22;7469;50.906;6.952;2022-12-16T16:51:03;-0.90;99.90
14755;DHT22;7469;50.906;6.952;2022-12-16T16:53:49;-0.90;99.90
14755;DHT22;7469;50.906;6.952;2022-12-16T16:56:36;-0.90;99.90
14755;DHT22;7469;50.906;6.952;2022-12-16T16:59:22;-0.90;99.90
14755;DHT22;7469;50.906;6.952;2022-12-16T17:02:16;-0.90;99.90
14755;DHT22;7469;50.906;6.952;2022-12-16T17:05:07;-0.90;99.90
14755;DHT22;7469;50.906;6.952;2022-12-16T17:07:55;-0.90;99.90
14755;DHT22;7469;50.906;6.952;2022-12-16T17:10:42;-0.90;99.90
14755;DHT22;7469;50.906;6.952;2022-12-16T17:13:27;-1.00;99.90
14755;DHT22;7469;50.906;6.952;2022-12-16T17:16:13;-0.90;99.90
14755;DHT22;7469;50.906;6.952;2022-12-16T17:19:00;-0.90;99.90
14755;DHT22;7469;50.906;6.952;2022-12-16T17:21:47;-0.90;99.90
14755;DHT22;7469;50.906;6.952;2022-12-16T17:24:32;-1.00;99.90
14755;DHT22;7469;50.906;6.952;2022-12-16T17:27:22;-1.00;99.90
14755;DHT22;7469;50.906;6.952;2022-12-16T17:30:13;-1.00;99.90
14755;DHT22;7469;50.906;6.952;2022-12-16T17:32:59;-1.00;99.90
14755;DHT22;7469;50.906;6.952;2022-12-16T17:35:49;-1.00;99.90
14755;DHT22;7469;50.906;6.952;2022-12-16T17:38:38;-0.90;99.90
14755;DHT22;7469;50.906;6.952;2022-12-16T17:41:24;-0.90;99.90
14755;DHT22;7469;50.906;6.952;2022-12-16T17:44:09;-0.90;99.90
14755;DHT22;7469;50.906;6.952;2022-12-16T17:46:55;-0.90;99.90
14755;DHT22;7469;50.906;6.952;2022-12-16T17:49:40;-0.80;99.90
14755;DHT22;7469;50.906;6.952;2022-12-16T17:52:27;-0.80;99.90
14755;DHT22;7469;50.906;6.952;2022-12-16T17:55:13;-0.80;99.90
14755;DHT22;7469;50.906;6.952;2022-12-16T17:57:58;-0.70;99.90
14755;DHT22;7469;50.906;6.952;2022-12-16T18:00:44;-0.80;99.90